Bluffton, Ohio
Current Conditions -  °F | °C
As of 12:24 AM on Thursday 27 Nov 2014 (Local Time) from KFDY Reporting Station
Overcast Overcast  
Wind Chill: 25°   Ceiling: 3000
Heat Index: 31°   Visibility: 8mi
Dew Point: 26°   Wind: 6mph
Humidity: 82%   Direction: 330°NNW
Pressure: 30.07"   Gusts: NA
Location:  40.9°N, 83.89°W
Report Text: KFDY 270524Z AUTO 33005KT 8SM OVC030 M01/M03 A3007 RMK AO2 T10061033
Loading
Personal Weather Stations






























Interactive Weather Map New forecast layout! Learn more

10-Day Weather Forecast

Advertisements
Track Severe Weather on mobile